Time;durP1;ratioP1;P1;durP2;ratioP2;P2;SDS_P1;SDS_P2;PMS_P1;PMS_P2;Temp;Humidity;BMP_temperature;BMP_pressure;BME280_temperature;BME280_humidity;BME280_pressure;Samples;Min_cycle;Max_cycle;Signal;HPM_P1;HPM_P2
2023/09/15 00:00:45;;;;;;;11.57;10.70;;;14.00;99.90;;;;;;5047892;28;20627;-79
2023/09/15 00:03:12;;;;;;;11.70;10.80;;;13.90;99.90;;;;;;5049438;28;20253;-79
2023/09/15 00:05:39;;;;;;;12.20;11.20;;;13.90;99.90;;;;;;5047481;28;20209;-79
2023/09/15 00:08:06;;;;;;;11.53;10.73;;;13.90;99.90;;;;;;5049668;28;20215;-80
2023/09/15 00:10:34;;;;;;;12.37;11.47;;;13.90;99.90;;;;;;5049009;28;20206;-79
2023/09/15 00:13:02;;;;;;;12.43;11.37;;;13.80;99.90;;;;;;5045327;28;20273;-80
2023/09/15 00:15:28;;;;;;;12.57;11.67;;;13.80;99.90;;;;;;5050290;28;20215;-79
2023/09/15 00:17:57;;;;;;;12.53;11.70;;;13.80;99.90;;;;;;5049606;28;20199;-79
2023/09/15 00:20:25;;;;;;;11.97;11.17;;;13.80;99.90;;;;;;5046985;28;20191;-79
2023/09/15 00:22:53;;;;;;;12.47;11.57;;;13.80;99.90;;;;;;5049800;28;20199;-80
2023/09/15 00:25:21;;;;;;;12.43;11.43;;;13.80;99.90;;;;;;5051948;28;20187;-79
2023/09/15 00:27:50;;;;;;;11.93;11.10;;;13.80;99.90;;;;;;5048857;28;20345;-79
2023/09/15 00:30:18;;;;;;;12.77;11.70;;;13.80;99.90;;;;;;5047490;28;20222;-79
2023/09/15 00:32:45;;;;;;;12.70;11.63;;;13.70;99.90;;;;;;5046647;28;20211;-79
2023/09/15 00:35:15;;;;;;;12.67;11.63;;;13.70;99.90;;;;;;5029659;28;20238;-79
2023/09/15 00:37:43;;;;;;;12.90;11.90;;;13.70;99.90;;;;;;5045977;28;20598;-79
2023/09/15 00:40:11;;;;;;;12.07;11.27;;;13.70;99.90;;;;;;5048476;28;20196;-79
2023/09/15 00:42:38;;;;;;;12.63;11.63;;;13.70;99.90;;;;;;5049714;28;20203;-80
2023/09/15 00:45:06;;;;;;;12.70;11.80;;;13.60;99.90;;;;;;5054003;28;20190;-79
2023/09/15 00:47:34;;;;;;;13.00;12.13;;;13.60;99.90;;;;;;5047161;28;20196;-79
2023/09/15 00:50:02;;;;;;;13.07;12.07;;;13.60;99.90;;;;;;5052347;28;20243;-80
2023/09/15 00:52:33;;;;;;;12.67;11.67;;;13.60;99.90;;;;;;5044059;28;20295;-79
2023/09/15 00:55:00;;;;;;;12.97;11.77;;;13.60;99.90;;;;;;5035573;28;20219;-79
2023/09/15 00:57:28;;;;;;;12.27;11.37;;;13.60;99.90;;;;;;5041626;28;20258;-79
2023/09/15 00:59:55;;;;;;;12.83;11.90;;;13.60;99.90;;;;;;5039710;28;20236;-79
2023/09/15 01:02:22;;;;;;;13.67;12.57;;;13.50;99.90;;;;;;5045251;28;20615;-79
2023/09/15 01:04:49;;;;;;;13.20;12.10;;;13.50;99.90;;;;;;5045414;28;20210;-78
2023/09/15 01:07:16;;;;;;;12.63;11.73;;;13.50;99.90;;;;;;5037974;28;20191;-79
2023/09/15 01:09:44;;;;;;;12.37;11.53;;;13.50;99.90;;;;;;5031735;28;20241;-79
2023/09/15 01:12:11;;;;;;;12.67;11.67;;;13.40;99.90;;;;;;5041805;28;20577;-79
2023/09/15 01:14:38;;;;;;;12.40;11.50;;;13.40;99.90;;;;;;5046268;28;20643;-79
2023/09/15 01:17:10;;;;;;;13.40;12.40;;;13.40;99.90;;;;;;5046400;28;20590;-79
2023/09/15 01:19:58;;;;;;;12.57;11.70;;;13.40;99.90;;;;;;5046314;28;20223;-79
2023/09/15 01:22:55;;;;;;;15.83;14.50;;;13.40;99.90;;;;;;5033784;28;20274;-79
2023/09/15 01:25:56;;;;;;;13.67;12.67;;;13.30;99.90;;;;;;5034196;28;20190;-79
2023/09/15 01:28:53;;;;;;;13.17;12.17;;;13.30;99.90;;;;;;5034606;28;20653;-79
2023/09/15 01:31:21;;;;;;;13.10;12.10;;;13.30;99.90;;;;;;5048400;28;20261;-80
2023/09/15 01:33:48;;;;;;;13.60;12.60;;;13.20;99.90;;;;;;5040243;28;20206;-80
2023/09/15 01:36:15;;;;;;;15.07;13.70;;;13.20;99.90;;;;;;5047170;28;20208;-79
2023/09/15 01:38:42;;;;;;;13.87;12.83;;;13.20;99.90;;;;;;5031433;28;20694;-80
2023/09/15 01:41:08;;;;;;;13.10;12.03;;;13.20;99.90;;;;;;5027692;28;20196;-79
2023/09/15 01:43:35;;;;;;;12.83;11.83;;;13.10;99.90;;;;;;5037549;28;20684;-79
2023/09/15 01:46:02;;;;;;;12.70;11.80;;;13.10;99.90;;;;;;5045592;28;20214;-79
2023/09/15 01:48:31;;;;;;;12.83;11.83;;;13.10;99.90;;;;;;5046182;28;20644;-79
2023/09/15 01:51:00;;;;;;;12.43;11.43;;;13.10;99.90;;;;;;5048540;28;20214;-80
2023/09/15 01:53:27;;;;;;;13.90;12.83;;;13.10;99.90;;;;;;5037477;28;20254;-79
2023/09/15 01:55:54;;;;;;;13.47;12.57;;;13.10;99.90;;;;;;5055472;28;20741;-79
2023/09/15 01:58:21;;;;;;;12.97;12.07;;;13.10;99.90;;;;;;5048358;28;20219;-80
2023/09/15 02:00:48;;;;;;;13.20;12.30;;;13.00;99.90;;;;;;5047225;28;20203;-79
2023/09/15 02:03:16;;;;;;;13.63;12.63;;;13.00;99.90;;;;;;5041742;28;20672;-80
2023/09/15 02:05:45;;;;;;;13.93;12.60;;;12.90;99.90;;;;;;5046183;28;20207;-79
2023/09/15 02:08:11;;;;;;;13.23;12.33;;;13.00;99.90;;;;;;5046426;28;20689;-79
2023/09/15 02:10:38;;;;;;;13.03;12.13;;;13.00;99.90;;;;;;5044617;28;20290;-79
2023/09/15 02:13:05;;;;;;;13.73;12.73;;;13.00;99.90;;;;;;5044079;28;20199;-79
2023/09/15 02:15:32;;;;;;;13.53;12.63;;;12.90;99.90;;;;;;5045889;28;20207;-79
2023/09/15 02:18:00;;;;;;;13.53;12.47;;;12.90;99.90;;;;;;5035513;28;20730;-80
2023/09/15 02:20:27;;;;;;;13.30;12.40;;;12.90;99.90;;;;;;5035757;28;20245;-79
2023/09/15 02:22:57;;;;;;;13.70;12.70;;;12.90;99.90;;;;;;5046471;28;20199;-78
2023/09/15 02:25:23;;;;;;;13.37;12.27;;;12.90;99.90;;;;;;5068218;28;20194;-79
2023/09/15 02:27:50;;;;;;;13.17;12.10;;;12.80;99.90;;;;;;5043622;28;20677;-78
2023/09/15 02:30:17;;;;;;;13.30;12.40;;;12.80;99.90;;;;;;5042489;28;20210;-79
2023/09/15 02:32:45;;;;;;;14.07;12.77;;;12.80;99.90;;;;;;5050676;28;20695;-79
2023/09/15 02:35:11;;;;;;;14.40;13.30;;;12.80;99.90;;;;;;5046687;28;20220;-80
2023/09/15 02:37:38;;;;;;;13.97;12.87;;;12.80;99.90;;;;;;5048545;28;20194;-79
2023/09/15 02:40:08;;;;;;;13.07;12.03;;;12.80;99.90;;;;;;5040690;28;20227;-79
2023/09/15 02:42:36;;;;;;;13.87;12.80;;;12.80;99.90;;;;;;5055958;28;20562;-78
2023/09/15 02:45:04;;;;;;;14.80;13.80;;;12.70;99.90;;;;;;5035148;28;20250;-79
2023/09/15 02:47:32;;;;;;;13.63;12.60;;;12.70;99.90;;;;;;5042180;28;20307;-79
2023/09/15 02:49:58;;;;;;;13.37;12.37;;;12.80;99.90;;;;;;5045202;28;20226;-79
2023/09/15 02:52:25;;;;;;;14.87;13.73;;;12.70;99.90;;;;;;5045055;28;20216;-77
2023/09/15 02:54:52;;;;;;;13.73;12.73;;;12.70;99.90;;;;;;5031724;28;20217;-80
2023/09/15 02:57:22;;;;;;;13.97;12.97;;;12.70;99.90;;;;;;5051893;28;20297;-81
2023/09/15 02:59:51;;;;;;;14.40;13.50;;;12.60;99.90;;;;;;5035741;28;20224;-80
2023/09/15 03:02:20;;;;;;;13.90;12.80;;;12.60;99.90;;;;;;5035593;28;20197;-80
2023/09/15 03:04:48;;;;;;;13.20;12.30;;;12.60;99.90;;;;;;5031482;28;20198;-80
2023/09/15 03:07:16;;;;;;;13.30;12.40;;;12.60;99.90;;;;;;5034322;28;20252;-81
2023/09/15 03:09:44;;;;;;;13.97;13.07;;;12.60;99.90;;;;;;5038120;28;20222;-80
2023/09/15 03:12:12;;;;;;;15.00;14.00;;;12.60;99.90;;;;;;5031255;28;20200;-80
2023/09/15 03:14:40;;;;;;;13.20;12.40;;;12.60;99.90;;;;;;5037771;28;20624;-80
2023/09/15 03:17:12;;;;;;;13.17;12.27;;;12.60;99.90;;;;;;5037582;28;20510;-78
2023/09/15 03:19:38;;;;;;;12.60;11.80;;;12.50;99.90;;;;;;5048233;28;20231;-81
2023/09/15 03:22:06;;;;;;;13.90;13.00;;;12.50;99.90;;;;;;5050448;28;20686;-80
2023/09/15 03:24:33;;;;;;;13.87;12.87;;;12.50;99.90;;;;;;5055116;28;20566;-79
2023/09/15 03:27:00;;;;;;;13.83;12.93;;;12.50;99.90;;;;;;5055931;28;20272;-79
2023/09/15 03:29:27;;;;;;;13.97;12.97;;;12.50;99.90;;;;;;5049642;28;20226;-78
2023/09/15 03:31:57;;;;;;;14.10;13.20;;;12.50;99.90;;;;;;5049170;28;20206;-79
2023/09/15 03:34:24;;;;;;;14.37;13.43;;;12.50;99.90;;;;;;5038315;28;20203;-77
2023/09/15 03:36:51;;;;;;;13.90;13.00;;;12.50;99.90;;;;;;5028566;28;20199;-76
2023/09/15 03:39:18;;;;;;;15.87;14.77;;;12.40;99.90;;;;;;5036188;28;20226;-77
2023/09/15 03:41:45;;;;;;;15.70;14.60;;;12.40;99.90;;;;;;5048827;28;20213;-77
2023/09/15 03:44:12;;;;;;;14.90;13.90;;;12.40;99.90;;;;;;5042219;28;20583;-77
2023/09/15 03:46:39;;;;;;;15.20;14.20;;;12.40;99.90;;;;;;5049028;28;20198;-77
2023/09/15 03:49:08;;;;;;;15.20;14.20;;;12.30;99.90;;;;;;5047584;28;20564;-76
2023/09/15 03:51:36;;;;;;;15.90;14.70;;;12.30;99.90;;;;;;5045235;28;20202;-77
2023/09/15 03:54:02;;;;;;;15.47;14.37;;;12.30;99.90;;;;;;5038621;28;20206;-77
2023/09/15 03:56:30;;;;;;;15.23;14.23;;;12.30;99.90;;;;;;5069576;28;20289;-77
2023/09/15 03:58:58;;;;;;;14.97;14.07;;;12.30;99.90;;;;;;5044435;28;20254;-77
2023/09/15 04:01:25;;;;;;;15.73;14.67;;;12.30;99.90;;;;;;5049103;28;20202;-77
2023/09/15 04:03:52;;;;;;;15.57;14.57;;;12.30;99.90;;;;;;5048738;28;20499;-77
2023/09/15 04:06:21;;;;;;;15.07;14.00;;;12.20;99.90;;;;;;5048042;28;20202;-78
2023/09/15 04:08:47;;;;;;;16.00;14.90;;;12.20;99.90;;;;;;5050254;28;20258;-77
2023/09/15 04:11:14;;;;;;;15.10;14.13;;;12.20;99.90;;;;;;5047844;28;20250;-78
2023/09/15 04:13:41;;;;;;;15.13;14.13;;;12.20;99.90;;;;;;5053181;28;20215;-78
2023/09/15 04:16:09;;;;;;;15.80;14.80;;;12.20;99.90;;;;;;5051503;28;20708;-78
2023/09/15 04:18:35;;;;;;;14.87;13.97;;;12.20;99.90;;;;;;5048855;28;20229;-78
2023/09/15 04:21:02;;;;;;;15.50;14.37;;;12.20;99.90;;;;;;5047403;28;20214;-78
2023/09/15 04:23:31;;;;;;;15.47;14.37;;;12.20;99.90;;;;;;5047036;28;20201;-78
2023/09/15 04:25:57;;;;;;;15.20;14.27;;;12.20;99.90;;;;;;5046918;28;20199;-78
2023/09/15 04:28:24;;;;;;;15.47;14.47;;;12.20;99.90;;;;;;5049271;28;20218;-77
2023/09/15 04:30:52;;;;;;;15.97;14.97;;;12.10;99.90;;;;;;5051724;28;20261;-77
2023/09/15 04:33:19;;;;;;;15.90;14.90;;;12.10;99.90;;;;;;5052280;28;20202;-77
2023/09/15 04:35:46;;;;;;;16.70;15.30;;;12.10;99.90;;;;;;5048876;28;20213;-78
2023/09/15 04:38:13;;;;;;;15.77;14.73;;;12.10;99.90;;;;;;5048294;28;20228;-78
2023/09/15 04:40:42;;;;;;;16.60;15.50;;;12.00;99.90;;;;;;5047554;28;20198;-78
2023/09/15 04:43:09;;;;;;;16.60;15.50;;;12.00;99.90;;;;;;5047206;28;20228;-78
2023/09/15 04:45:37;;;;;;;17.47;16.17;;;12.00;99.90;;;;;;5050112;28;20192;-77
2023/09/15 04:48:06;;;;;;;16.63;15.53;;;12.00;99.90;;;;;;5047227;28;20713;-78
2023/09/15 04:50:36;;;;;;;15.80;14.80;;;12.00;99.90;;;;;;5054989;28;20197;-77
2023/09/15 04:53:04;;;;;;;17.00;15.90;;;12.00;99.90;;;;;;5050200;28;20216;-78
2023/09/15 04:55:31;;;;;;;16.43;15.33;;;12.00;99.90;;;;;;5037929;28;20631;-78
2023/09/15 04:58:01;;;;;;;16.50;15.50;;;11.90;99.90;;;;;;5047592;28;20238;-78
2023/09/15 05:00:29;;;;;;;17.07;15.97;;;11.90;99.90;;;;;;5043449;28;20210;-78
2023/09/15 05:02:59;;;;;;;16.33;15.27;;;11.90;99.90;;;;;;5062959;28;20229;-77
2023/09/15 05:05:26;;;;;;;16.83;15.73;;;11.90;99.90;;;;;;5047961;28;20195;-78
2023/09/15 05:07:53;;;;;;;16.60;15.50;;;11.90;99.90;;;;;;5050837;28;20206;-77
2023/09/15 05:10:20;;;;;;;16.47;15.37;;;11.90;99.90;;;;;;5051479;28;20205;-77
2023/09/15 05:12:47;;;;;;;16.90;15.70;;;12.00;99.90;;;;;;5047681;28;20231;-77
2023/09/15 05:15:15;;;;;;;16.60;15.50;;;12.00;99.90;;;;;;5045722;28;20224;-78
2023/09/15 05:17:44;;;;;;;16.53;15.43;;;12.00;99.90;;;;;;5045841;28;20205;-78
2023/09/15 05:20:12;;;;;;;15.97;14.87;;;12.10;99.90;;;;;;5049063;28;20233;-78
2023/09/15 05:22:39;;;;;;;15.57;14.57;;;12.10;99.90;;;;;;5033487;28;20301;-78
2023/09/15 05:25:07;;;;;;;16.27;15.27;;;12.10;99.90;;;;;;5048212;28;20199;-77
2023/09/15 05:27:34;;;;;;;16.00;14.97;;;12.20;99.90;;;;;;5051615;28;20297;-78
2023/09/15 05:30:02;;;;;;;15.97;14.90;;;12.20;99.90;;;;;;5048239;28;20217;-77
2023/09/15 05:32:35;;;;;;;17.03;15.93;;;12.30;99.90;;;;;;5046608;28;20210;-78
2023/09/15 05:35:02;;;;;;;16.73;15.53;;;12.30;99.90;;;;;;5033896;28;20241;-78
2023/09/15 05:37:29;;;;;;;16.30;15.30;;;12.30;99.90;;;;;;5019722;28;20199;-78
2023/09/15 05:39:56;;;;;;;16.20;15.10;;;12.40;99.90;;;;;;5033373;28;20267;-78
2023/09/15 05:42:23;;;;;;;15.53;14.53;;;12.40;99.90;;;;;;5025333;28;20258;-78
2023/09/15 05:44:52;;;;;;;16.13;15.03;;;12.50;99.90;;;;;;5037481;28;20203;-78
2023/09/15 05:47:21;;;;;;;16.30;15.20;;;12.60;99.90;;;;;;5049754;28;20225;-77
2023/09/15 05:49:49;;;;;;;15.70;14.70;;;12.70;99.90;;;;;;5047739;28;20229;-78
2023/09/15 05:52:16;;;;;;;16.27;15.17;;;12.80;99.90;;;;;;5046531;28;20208;-78
2023/09/15 05:54:42;;;;;;;15.73;14.63;;;13.00;99.90;;;;;;5068238;28;20209;-78
2023/09/15 05:57:09;;;;;;;14.63;13.73;;;13.10;99.90;;;;;;5049585;28;20758;-78
2023/09/15 05:59:36;;;;;;;14.53;13.63;;;13.10;99.90;;;;;;5046202;28;20218;-78
2023/09/15 06:02:03;;;;;;;14.93;13.93;;;13.20;99.90;;;;;;5050192;28;20199;-77
2023/09/15 06:04:30;;;;;;;15.93;14.83;;;13.40;99.90;;;;;;5048074;28;20195;-78
2023/09/15 06:06:58;;;;;;;14.60;13.60;;;13.40;99.90;;;;;;5047604;28;20226;-77
2023/09/15 06:09:26;;;;;;;15.73;14.63;;;13.50;99.90;;;;;;5046768;28;20223;-78
2023/09/15 06:11:53;;;;;;;15.00;14.00;;;13.60;99.90;;;;;;5050647;28;20203;-78
2023/09/15 06:14:20;;;;;;;14.90;13.90;;;13.60;99.90;;;;;;5046071;28;20200;-81
2023/09/15 06:16:46;;;;;;;14.57;13.57;;;13.70;99.90;;;;;;5052777;28;20244;-80
2023/09/15 06:19:13;;;;;;;14.00;13.10;;;13.70;99.90;;;;;;5052745;28;20651;-78
2023/09/15 06:21:40;;;;;;;14.37;13.47;;;13.80;99.90;;;;;;5052883;28;20195;-78
2023/09/15 06:24:08;;;;;;;14.43;13.50;;;13.90;99.90;;;;;;5049389;28;20278;-78
2023/09/15 06:26:36;;;;;;;13.73;12.83;;;13.90;99.90;;;;;;5048040;28;20244;-78
2023/09/15 06:29:03;;;;;;;13.40;12.50;;;14.00;99.90;;;;;;5047451;28;20219;-78
2023/09/15 06:31:30;;;;;;;14.17;13.10;;;14.10;99.90;;;;;;5041360;28;20225;-78
2023/09/15 06:33:57;;;;;;;13.77;12.77;;;14.10;99.90;;;;;;5036650;28;20735;-78
2023/09/15 06:36:26;;;;;;;12.67;11.77;;;14.20;99.90;;;;;;5048436;28;20217;-78
2023/09/15 06:38:53;;;;;;;10.93;10.07;;;14.20;99.90;;;;;;5052963;28;20221;-78
2023/09/15 06:41:21;;;;;;;8.07;7.40;;;14.30;99.90;;;;;;5051150;28;20257;-78
2023/09/15 06:43:48;;;;;;;8.50;7.80;;;14.40;99.90;;;;;;5042481;28;20199;-80
2023/09/15 06:46:18;;;;;;;9.00;8.10;;;14.50;99.90;;;;;;5046652;28;20278;-80
2023/09/15 06:48:47;;;;;;;9.97;9.17;;;14.60;99.90;;;;;;5046272;28;20270;-82
2023/09/15 06:51:14;;;;;;;8.80;8.10;;;14.60;99.90;;;;;;5041961;28;20268;-81
2023/09/15 06:53:41;;;;;;;9.50;8.80;;;14.70;99.90;;;;;;5053762;28;20203;-82
2023/09/15 06:56:08;;;;;;;7.00;6.40;;;14.80;99.90;;;;;;5054082;28;20220;-82
2023/09/15 06:58:36;;;;;;;8.43;7.63;;;14.90;99.90;;;;;;5059341;28;20217;-81
2023/09/15 07:01:04;;;;;;;8.20;7.40;;;15.00;99.90;;;;;;5043048;28;20739;-82
2023/09/15 07:03:33;;;;;;;10.13;9.37;;;15.10;99.90;;;;;;5047179;28;20207;-81
2023/09/15 07:06:00;;;;;;;6.97;6.33;;;15.20;99.90;;;;;;5057524;28;20202;-82
2023/09/15 07:08:26;;;;;;;7.17;6.50;;;15.50;99.90;;;;;;5039385;28;20223;-81
2023/09/15 07:10:53;;;;;;;8.20;6.63;;;15.70;99.90;;;;;;5052875;28;20242;-81
2023/09/15 07:13:20;;;;;;;10.57;9.67;;;16.10;99.90;;;;;;5043393;28;20669;-81
2023/09/15 07:15:48;;;;;;;13.20;12.13;;;16.50;99.90;;;;;;5042050;28;20236;-82
2023/09/15 07:18:15;;;;;;;13.50;12.60;;;16.90;99.90;;;;;;5049740;28;20219;-83
2023/09/15 07:20:43;;;;;;;14.07;13.07;;;17.30;99.90;;;;;;5050675;28;20245;-81
2023/09/15 07:23:10;;;;;;;9.40;8.57;;;17.60;99.90;;;;;;5044165;28;20184;-82
2023/09/15 07:25:37;;;;;;;10.33;9.37;;;18.00;99.90;;;;;;5044839;28;20212;-82
2023/09/15 07:28:04;;;;;;;6.73;6.00;;;18.30;99.90;;;;;;5050386;28;20222;-82
2023/09/15 07:30:34;;;;;;;9.80;8.90;;;18.70;99.90;;;;;;5055069;28;20274;-82
2023/09/15 07:33:03;;;;;;;8.60;7.17;;;19.00;99.90;;;;;;5049169;28;20202;-82
2023/09/15 07:35:30;;;;;;;9.40;8.60;;;19.30;99.90;;;;;;5053949;28;20229;-82
2023/09/15 07:37:57;;;;;;;11.33;10.33;;;19.50;99.90;;;;;;5048367;28;20217;-82
2023/09/15 07:40:24;;;;;;;9.63;7.03;;;19.70;99.90;;;;;;5050356;28;20196;-82
2023/09/15 07:42:50;;;;;;;14.30;13.10;;;20.00;99.90;;;;;;5037501;28;20719;-82
2023/09/15 07:45:17;;;;;;;14.67;13.30;;;20.20;99.90;;;;;;5043779;28;20681;-82
2023/09/15 07:47:45;;;;;;;13.47;12.27;;;20.60;99.90;;;;;;5037178;28;20295;-80
2023/09/15 07:50:13;;;;;;;12.07;11.17;;;20.90;99.90;;;;;;5051967;28;20200;-81
2023/09/15 07:52:40;;;;;;;12.67;11.47;;;21.00;99.90;;;;;;5021887;28;20208;-80
2023/09/15 07:55:08;;;;;;;11.93;10.93;;;21.20;99.90;;;;;;5037152;28;20639;-80
2023/09/15 07:57:36;;;;;;;9.17;8.27;;;21.50;99.90;;;;;;5021091;28;20215;-79
2023/09/15 08:00:04;;;;;;;8.03;6.53;;;21.80;99.90;;;;;;5046090;28;20207;-80
2023/09/15 08:02:38;;;;;;;8.60;7.80;;;21.90;99.90;;;;;;5027250;28;20199;-80
2023/09/15 08:05:06;;;;;;;15.20;13.93;;;21.90;99.90;;;;;;5036430;28;20195;-80
2023/09/15 08:07:34;;;;;;;12.70;11.70;;;22.10;99.90;;;;;;5049513;28;20184;-80
2023/09/15 08:10:02;;;;;;;10.40;9.40;;;22.20;99.90;;;;;;5049571;28;20281;-80
2023/09/15 08:12:29;;;;;;;7.50;6.80;;;22.30;99.90;;;;;;5048267;28;20196;-80
2023/09/15 08:14:56;;;;;;;7.60;6.80;;;22.30;99.90;;;;;;5048215;28;20202;-80
2023/09/15 08:17:23;;;;;;;8.73;7.00;;;22.30;99.90;;;;;;5054481;28;20254;-81
2023/09/15 08:19:49;;;;;;;11.57;10.37;;;22.10;99.90;;;;;;5044858;28;20253;-80
2023/09/15 08:22:16;;;;;;;9.83;8.90;;;22.20;99.90;;;;;;5049995;28;20218;-80
2023/09/15 08:24:44;;;;;;;9.03;7.03;;;22.30;99.90;;;;;;5051160;28;20659;-80
2023/09/15 08:27:11;;;;;;;9.37;8.37;;;22.50;99.90;;;;;;5050017;28;20195;-80
2023/09/15 08:29:38;;;;;;;9.13;8.20;;;22.40;99.90;;;;;;5040281;28;20220;-80
2023/09/15 08:32:06;;;;;;;10.00;7.73;;;22.40;99.90;;;;;;5052076;28;20693;-81
2023/09/15 08:34:32;;;;;;;11.27;10.30;;;22.50;99.90;;;;;;5042028;28;20192;-81
2023/09/15 08:36:59;;;;;;;13.63;12.53;;;22.60;99.90;;;;;;5056682;28;20211;-80
2023/09/15 08:39:26;;;;;;;11.50;10.60;;;22.70;99.90;;;;;;5055091;28;20662;-81
2023/09/15 08:42:01;;;;;;;15.17;14.07;;;23.00;99.90;;;;;;5049197;28;20645;-81
2023/09/15 08:44:31;;;;;;;8.57;7.67;;;23.00;99.90;;;;;;5055176;28;20198;-81
2023/09/15 08:47:00;;;;;;;12.77;11.57;;;23.10;99.90;;;;;;5045191;28;20622;-81
2023/09/15 08:49:27;;;;;;;14.07;12.97;;;23.10;99.90;;;;;;5051813;28;20650;-80
2023/09/15 08:51:55;;;;;;;14.90;13.50;;;23.20;99.90;;;;;;5050630;28;20195;-81
2023/09/15 08:54:22;;;;;;;8.00;7.10;;;22.80;99.90;;;;;;5045493;28;20196;-82
2023/09/15 09:04:11;;;;;;;14.50;13.27;;;23.20;99.90;;;;;;5033911;28;20182;-80
2023/09/15 09:06:38;;;;;;;7.53;6.70;;;23.00;99.90;;;;;;5036858;28;20701;-81
2023/09/15 09:09:07;;;;;;;8.37;7.07;;;23.30;99.90;;;;;;5029368;28;20216;-81
2023/09/15 09:11:34;;;;;;;11.73;8.33;;;23.50;99.90;;;;;;5028874;28;20251;-81
2023/09/15 09:14:04;;;;;;;7.80;6.83;;;23.60;99.90;;;;;;5024579;28;20196;-80
2023/09/15 09:16:31;;;;;;;10.40;7.60;;;24.00;99.90;;;;;;5028681;28;20219;-80
2023/09/15 09:19:00;;;;;;;12.97;11.87;;;24.00;99.90;;;;;;5033923;28;20207;-80
2023/09/15 09:21:28;;;;;;;12.80;11.80;;;24.10;99.90;;;;;;5032641;28;20202;-80
2023/09/15 09:23:55;;;;;;;9.03;7.20;;;24.30;99.90;;;;;;5029707;28;20214;-81
2023/09/15 09:26:22;;;;;;;11.87;10.50;;;24.50;99.90;;;;;;5030022;28;20195;-80
2023/09/15 09:28:49;;;;;;;12.47;11.57;;;24.40;99.90;;;;;;5028340;28;20231;-80
2023/09/15 09:31:17;;;;;;;10.77;9.87;;;24.30;99.90;;;;;;5023665;28;20732;-80
2023/09/15 09:33:44;;;;;;;10.00;9.10;;;24.40;99.90;;;;;;5024476;28;20205;-79
2023/09/15 09:36:14;;;;;;;10.57;9.73;;;24.40;99.90;;;;;;5021236;28;20217;-81
2023/09/15 09:38:42;;;;;;;11.53;10.53;;;24.50;99.90;;;;;;5016731;28;20311;-80
2023/09/15 09:41:11;;;;;;;10.13;9.20;;;24.40;99.90;;;;;;5017903;28;20189;-80
2023/09/15 09:43:39;;;;;;;11.30;10.40;;;24.40;99.90;;;;;;5020951;28;20299;-81
2023/09/15 09:46:06;;;;;;;8.97;8.27;;;24.50;99.90;;;;;;5034390;28;20196;-80
2023/09/15 09:48:35;;;;;;;7.83;7.10;;;24.60;99.90;;;;;;5025454;28;20279;-81
2023/09/15 09:51:03;;;;;;;9.90;7.70;;;24.70;99.90;;;;;;5030026;28;20192;-82
2023/09/15 09:53:32;;;;;;;8.23;6.50;;;24.80;99.90;;;;;;5031881;28;20193;-80
2023/09/15 09:55:59;;;;;;;9.93;8.17;;;24.90;99.90;;;;;;5026874;28;20243;-81
2023/09/15 09:58:26;;;;;;;12.10;11.20;;;24.40;99.90;;;;;;5028564;28;20647;-80
2023/09/15 10:00:54;;;;;;;11.90;10.90;;;24.30;99.90;;;;;;5029951;28;20262;-80
2023/09/15 10:03:21;;;;;;;9.27;8.47;;;24.30;99.90;;;;;;5033704;28;20191;-80
2023/09/15 10:05:50;;;;;;;7.63;6.93;;;24.20;99.90;;;;;;5015978;28;20196;-80
2023/09/15 10:08:17;;;;;;;7.97;6.43;;;24.40;99.90;;;;;;5031770;28;20216;-80
2023/09/15 10:10:46;;;;;;;10.00;8.63;;;24.50;99.90;;;;;;5023717;28;20205;-80
2023/09/15 10:13:14;;;;;;;11.47;10.40;;;24.10;99.90;;;;;;5029594;28;20736;-80
2023/09/15 10:15:42;;;;;;;8.77;6.10;;;24.00;99.90;;;;;;5028789;28;20200;-80
2023/09/15 10:18:12;;;;;;;11.60;10.70;;;23.90;99.90;;;;;;5032342;28;20211;-80
2023/09/15 10:20:40;;;;;;;11.87;10.97;;;24.00;99.90;;;;;;5030157;28;20203;-79
2023/09/15 10:23:10;;;;;;;13.50;12.40;;;23.80;99.90;;;;;;5012015;28;20254;-80
2023/09/15 10:25:43;;;;;;;12.97;12.07;;;23.70;99.90;;;;;;5025713;28;20594;-80
2023/09/15 10:28:11;;;;;;;7.27;6.00;;;23.50;99.90;;;;;;5018162;28;20247;-79
2023/09/15 10:30:38;;;;;;;10.80;8.77;;;23.50;99.90;;;;;;5016609;28;20753;-80
2023/09/15 10:33:07;;;;;;;13.60;12.50;;;23.70;99.90;;;;;;5014051;28;20209;-79
2023/09/15 10:35:34;;;;;;;10.57;9.67;;;23.50;99.90;;;;;;5032904;28;20336;-80
2023/09/15 10:38:03;;;;;;;9.37;8.67;;;23.50;99.90;;;;;;5010060;28;20220;-80
2023/09/15 10:40:44;;;;;;;10.97;10.07;;;23.60;99.90;;;;;;5014211;28;20612;-80
2023/09/15 10:43:11;;;;;;;11.27;10.37;;;23.70;99.90;;;;;;5010599;28;20319;-80
2023/09/15 10:45:38;;;;;;;10.00;9.20;;;23.50;99.90;;;;;;5017551;28;20585;-79
2023/09/15 10:48:05;;;;;;;9.37;8.67;;;23.60;99.90;;;;;;5006509;28;20361;-79
2023/09/15 10:50:33;;;;;;;10.67;9.77;;;23.80;99.90;;;;;;5014163;28;20247;-80
2023/09/15 10:53:08;;;;;;;10.00;9.10;;;23.80;99.90;;;;;;5026383;28;20210;-80
2023/09/15 10:55:36;;;;;;;9.70;8.97;;;23.80;99.90;;;;;;5011836;28;20235;-80
2023/09/15 10:58:04;;;;;;;10.07;9.07;;;23.80;99.90;;;;;;5035693;28;20224;-79
2023/09/15 11:00:32;;;;;;;9.40;8.60;;;23.50;99.90;;;;;;5018384;28;20612;-80
2023/09/15 11:02:59;;;;;;;9.87;8.30;;;23.50;99.90;;;;;;5025376;28;20203;-79
2023/09/15 11:05:27;;;;;;;8.73;7.93;;;23.50;99.90;;;;;;5014675;28;20667;-80
2023/09/15 11:07:55;;;;;;;10.47;7.93;;;23.50;99.90;;;;;;5009645;28;20284;-79
2023/09/15 11:10:27;;;;;;;7.53;6.53;;;23.50;99.90;;;;;;5031124;28;20201;-79
2023/09/15 11:13:00;;;;;;;8.30;6.63;;;23.50;99.90;;;;;;5016045;28;20281;-80
2023/09/15 11:15:28;;;;;;;8.27;7.30;;;23.70;99.90;;;;;;5035608;28;20296;-79
2023/09/15 11:17:54;;;;;;;8.40;7.50;;;23.60;99.90;;;;;;5015846;28;20687;-80
2023/09/15 11:20:22;;;;;;;7.87;7.07;;;23.60;99.90;;;;;;5015035;28;20193;-80
2023/09/15 11:22:55;;;;;;;8.47;7.67;;;23.60;99.90;;;;;;5016083;28;20683;-81
2023/09/15 11:25:22;;;;;;;8.87;8.13;;;23.60;99.90;;;;;;5011891;28;20212;-82
2023/09/15 11:27:49;;;;;;;8.50;7.63;;;23.50;99.90;;;;;;5015562;28;20256;-82
2023/09/15 11:30:17;;;;;;;5.93;5.32;;;23.60;99.90;;;;;;5032383;28;20447;-82
2023/09/15 11:32:44;;;;;;;6.10;5.53;;;23.60;99.90;;;;;;5016774;28;20228;-81
2023/09/15 11:35:12;;;;;;;5.83;5.23;;;23.70;99.90;;;;;;5018025;28;20203;-82
2023/09/15 11:37:40;;;;;;;5.90;5.23;;;23.80;99.90;;;;;;5030995;28;20474;-83
2023/09/15 11:40:08;;;;;;;8.17;6.67;;;23.80;99.90;;;;;;5019518;28;20454;-82
2023/09/15 11:42:36;;;;;;;6.63;5.97;;;23.80;99.90;;;;;;5036123;28;20453;-82
2023/09/15 11:45:04;;;;;;;6.23;5.63;;;23.70;99.90;;;;;;5023680;28;20443;-82
2023/09/15 11:47:33;;;;;;;5.60;4.90;;;23.70;99.90;;;;;;5051710;28;20290;-81
2023/09/15 11:50:05;;;;;;;6.70;6.00;;;23.80;99.90;;;;;;5027512;28;20212;-81
2023/09/15 11:52:32;;;;;;;6.20;5.37;;;23.80;99.90;;;;;;5041790;28;20196;-82
2023/09/15 11:54:59;;;;;;;6.47;5.27;;;23.80;99.90;;;;;;5026362;28;20204;-82
2023/09/15 11:57:26;;;;;;;6.43;5.63;;;23.80;99.90;;;;;;5024456;28;20220;-82
2023/09/15 11:59:53;;;;;;;6.27;5.57;;;23.90;99.90;;;;;;5018657;28;20233;-82
2023/09/15 12:02:21;;;;;;;6.57;5.57;;;24.00;99.90;;;;;;5028545;28;20249;-83
2023/09/15 12:04:49;;;;;;;5.97;5.37;;;24.00;99.90;;;;;;5033172;28;20197;-82
2023/09/15 12:07:16;;;;;;;5.90;5.30;;;24.00;99.90;;;;;;5028076;28;20250;-81
2023/09/15 12:09:43;;;;;;;6.30;5.57;;;24.10;99.90;;;;;;5024679;28;20228;-82
2023/09/15 12:12:16;;;;;;;5.97;5.37;;;24.10;99.90;;;;;;5032257;28;20729;-82
2023/09/15 12:14:43;;;;;;;10.13;5.27;;;24.00;99.90;;;;;;5028741;28;20262;-82
2023/09/15 12:17:10;;;;;;;6.30;5.30;;;24.10;99.90;;;;;;5029129;28;20200;-82
2023/09/15 12:19:37;;;;;;;6.00;5.40;;;24.10;99.90;;;;;;5030427;28;20216;-82
2023/09/15 12:22:05;;;;;;;5.73;5.20;;;24.00;99.90;;;;;;5029311;28;20284;-82
2023/09/15 12:24:32;;;;;;;5.27;4.77;;;24.10;99.90;;;;;;5031853;28;20627;-82
2023/09/15 12:27:03;;;;;;;5.67;4.97;;;24.20;99.90;;;;;;5032027;28;20209;-81
2023/09/15 12:29:30;;;;;;;6.10;5.23;;;24.30;99.90;;;;;;5021929;28;20212;-81
2023/09/15 12:31:57;;;;;;;6.13;5.53;;;24.30;99.90;;;;;;5027435;28;20290;-82
2023/09/15 12:34:27;;;;;;;5.43;4.83;;;24.30;99.90;;;;;;5024985;28;20207;-82
2023/09/15 12:36:55;;;;;;;6.00;5.40;;;24.40;99.90;;;;;;5022019;28;20251;-81
2023/09/15 12:39:24;;;;;;;5.63;5.13;;;24.40;99.90;;;;;;5027277;28;20314;-82
2023/09/15 12:42:04;;;;;;;5.57;5.07;;;24.30;99.90;;;;;;5028827;28;20213;-83
2023/09/15 12:44:31;;;;;;;5.40;4.90;;;24.50;99.90;;;;;;5026513;28;20204;-82